Greenville, New Jersey
Current Conditions -  °F | °C
As of 1:51 PM on Friday 24 Oct 2014 (Local Time) from KEWR Reporting Station
Broken Clouds Broken Clouds  
Wind Chill: 61°   Ceiling: 4000
Heat Index: 61°   Visibility: 10mi
Dew Point: 44°   Wind: 10mph
Humidity: 54%   Direction: 320°NW
Pressure: 29.79"   Gusts: NA
Location:  40.696°N, 74.0853°W
Report Text: KEWR 241751Z 32009KT 10SM FEW035 BKN040 BKN150 16/07 A2979 RMK AO2 SLP087 T01610067 10161 20111 58014
Loading
Personal Weather Stations






























Interactive Weather Map
Tropical Storm Tracking
New forecast layout! Learn more

10-Day Weather Forecast

Advertisements
Track Severe Weather on mobile